Time;durP1;ratioP1;P1;durP2;ratioP2;P2;SDS_P1;SDS_P2;PMS_P1;PMS_P2;Temp;Humidity;BMP_temperature;BMP_pressure;BME280_temperature;BME280_humidity;BME280_pressure;Samples;Min_cycle;Max_cycle;Signal;HPM_P1;HPM_P2
2022/01/16 00:04:11;;;;;;;24.40;11.55;;;;;;;-0.22;75.42;102077.59;1595847;89;21055;-76
2022/01/16 00:06:42;;;;;;;26.73;10.70;;;;;;;-0.21;75.43;102081.09;1595298;89;21126;-76
2022/01/16 00:09:09;;;;;;;24.57;10.78;;;;;;;-0.20;75.43;102082.52;1596919;89;21248;-75
2022/01/16 00:11:35;;;;;;;23.90;11.12;;;;;;;-0.20;75.41;102073.86;1576194;90;21089;-76
2022/01/16 00:14:04;;;;;;;27.07;10.58;;;;;;;-0.24;75.33;102058.44;1597481;89;21775;-76
2022/01/16 00:16:30;;;;;;;22.93;10.70;;;;;;;-0.24;75.34;102057.16;1579706;89;21608;-75
2022/01/16 00:18:58;;;;;;;29.42;11.65;;;;;;;-0.26;75.32;102055.20;1597142;89;21182;-76
2022/01/16 00:21:33;;;;;;;23.62;11.78;;;;;;;-0.28;75.30;102054.13;1596922;89;21364;-76
2022/01/16 00:24:00;;;;;;;28.80;12.23;;;;;;;-0.31;75.31;102062.94;1595522;89;21134;-76
2022/01/16 00:26:26;;;;;;;24.98;12.63;;;;;;;-0.34;75.35;102061.36;1575687;90;21779;-76
2022/01/16 00:28:53;;;;;;;29.75;11.75;;;;;;;-0.37;75.36;102067.17;1596186;89;21079;-76
2022/01/16 00:31:22;;;;;;;27.30;11.30;;;;;;;-0.40;75.35;102069.08;1576093;90;21113;-76
2022/01/16 00:33:48;;;;;;;26.35;10.20;;;;;;;-0.44;75.35;102067.39;1597468;89;21106;-75
2022/01/16 00:36:18;;;;;;;21.93;10.60;;;;;;;-0.48;75.41;102065.30;1597047;89;21158;-76
2022/01/16 00:38:47;;;;;;;20.00;10.55;;;;;;;-0.49;75.47;102067.34;1597009;89;21848;-76
2022/01/16 00:41:14;;;;;;;23.50;10.90;;;;;;;-0.52;75.53;102061.92;1575840;90;21109;-76
2022/01/16 00:43:41;;;;;;;28.07;11.15;;;;;;;-0.54;75.51;102064.75;1597103;89;21653;-76
2022/01/16 00:46:08;;;;;;;30.45;12.10;;;;;;;-0.57;75.54;102058.90;1596023;89;21191;-76
2022/01/16 00:48:34;;;;;;;25.10;11.88;;;;;;;-0.59;75.53;102038.06;1575716;90;21182;-76
2022/01/16 00:51:01;;;;;;;28.40;13.40;;;;;;;-0.64;75.51;102029.37;1596276;88;21817;-76
2022/01/16 00:53:28;;;;;;;24.75;11.38;;;;;;;-0.69;75.54;102027.67;1575621;90;21698;-75
2022/01/16 00:55:55;;;;;;;25.80;11.43;;;;;;;-0.71;75.60;102024.05;1596933;89;21122;-76
2022/01/16 00:58:21;;;;;;;22.20;11.03;;;;;;;-0.74;75.67;102039.27;1595590;89;21102;-76
2022/01/16 01:00:48;;;;;;;23.75;11.55;;;;;;;-0.74;75.76;102040.95;1577045;89;21722;-76
2022/01/16 01:03:15;;;;;;;26.05;12.30;;;;;;;-0.74;75.78;102038.37;1597186;89;21718;-76
2022/01/16 01:05:42;;;;;;;29.35;11.45;;;;;;;-0.73;75.81;102052.73;1597095;89;21107;-76
2022/01/16 01:08:08;;;;;;;24.92;11.60;;;;;;;-0.75;75.83;102036.17;1576044;90;21120;-77
2022/01/16 01:10:38;;;;;;;24.55;12.05;;;;;;;-0.76;75.84;102043.39;1596726;89;21166;-76
2022/01/16 01:13:22;;;;;;;25.80;12.50;;;;;;;-0.77;75.87;102046.73;1596190;89;21102;-76
2022/01/16 01:15:44;;;;;;;24.87;13.35;;;;;;;-0.76;75.98;102042.10;1595025;88;21987;-76
2022/01/16 01:18:10;;;;;;;32.40;13.05;;;;;;;-0.70;76.12;102038.77;1596647;88;21141;-76
2022/01/16 01:20:37;;;;;;;24.37;13.62;;;;;;;-0.61;76.20;102042.19;1597363;89;21138;-76
2022/01/16 01:23:04;;;;;;;28.05;12.78;;;;;;;-0.51;76.24;102021.04;1596966;89;21874;-77
2022/01/16 01:25:31;;;;;;;25.12;12.80;;;;;;;-0.42;76.22;102025.35;1576176;90;21177;-76
2022/01/16 01:27:57;;;;;;;24.82;12.85;;;;;;;-0.34;76.10;102007.02;1597085;89;21799;-74
2022/01/16 01:30:24;;;;;;;26.12;12.82;;;;;;;-0.30;75.96;102007.81;1597215;89;21611;-75
2022/01/16 01:32:55;;;;;;;29.95;13.48;;;;;;;-0.26;75.83;102031.92;1597052;89;21098;-75
2022/01/16 01:35:22;;;;;;;25.50;13.15;;;;;;;-0.23;75.80;102037.34;1594474;89;21130;-75
2022/01/16 01:37:49;;;;;;;23.02;12.55;;;;;;;-0.20;75.78;102010.46;1596379;89;21098;-75
2022/01/16 01:40:19;;;;;;;28.62;14.47;;;;;;;-0.13;75.82;102008.01;1575789;90;21394;-74
2022/01/16 01:43:01;;;;;;;28.77;14.00;;;;;;;-0.06;75.83;102003.90;1596857;89;21191;-75
2022/01/16 01:51:09;;;;;;;24.15;14.35;;;;;;;0.21;75.66;102029.08;1598219;89;21141;-76
2022/01/16 01:53:37;;;;;;;27.60;13.15;;;;;;;0.24;75.41;102030.66;1598157;89;21966;-76
2022/01/16 01:56:05;;;;;;;26.48;13.15;;;;;;;0.26;75.34;101998.03;1583188;89;21154;-75
2022/01/16 01:58:32;;;;;;;25.10;12.28;;;;;;;0.31;75.29;102000.23;1567913;89;21109;-75
2022/01/16 02:00:59;;;;;;;24.35;12.10;;;;;;;0.33;75.18;101964.12;1567724;90;21128;-75
2022/01/16 02:06:19;;;;;;;23.87;12.28;;;;;;;0.40;75.10;101905.59;1567224;89;21784;-75
2022/01/16 02:08:50;;;;;;;24.67;11.80;;;;;;;0.44;75.04;101888.23;1553566;92;21130;-76
2022/01/16 02:11:17;;;;;;;27.30;12.23;;;;;;;0.45;74.94;101887.47;1567035;88;21082;-76
2022/01/16 02:13:49;;;;;;;28.15;12.07;;;;;;;0.47;74.91;101887.56;1570702;91;21103;-75
2022/01/16 02:28:22;;;;;;;29.07;13.95;;;;;;;0.63;74.56;101913.98;1570887;91;21106;-75
2022/01/16 02:35:05;;;;;;;33.83;14.80;;;;;;;0.61;74.45;101921.13;1598241;89;21170;-76
2022/01/16 02:37:32;;;;;;;33.70;15.65;;;;;;;0.62;74.46;101897.02;1599223;89;21335;-76
2022/01/16 02:40:08;;;;;;;35.95;14.90;;;;;;;0.62;74.47;101902.19;1599147;89;21183;-76
2022/01/16 02:42:35;;;;;;;37.80;15.08;;;;;;;0.62;74.48;101912.20;1597075;87;21110;-76
2022/01/16 02:45:02;;;;;;;38.25;16.60;;;;;;;0.64;74.50;101918.77;1597980;88;21971;-76
2022/01/16 02:47:28;;;;;;;38.15;17.07;;;;;;;0.64;74.42;101918.77;1598768;89;21367;-76
2022/01/16 02:49:55;;;;;;;37.95;15.98;;;;;;;0.63;74.37;101921.77;1598235;88;21101;-76
2022/01/16 02:52:22;;;;;;;30.45;15.63;;;;;;;0.62;74.32;101921.63;1598436;89;21305;-76
2022/01/16 02:54:50;;;;;;;40.55;16.85;;;;;;;0.63;74.39;101927.34;1598287;89;21311;-76
2022/01/16 02:57:19;;;;;;;36.70;16.93;;;;;;;0.64;74.39;101916.19;1580238;89;22616;-76
2022/01/16 02:59:49;;;;;;;42.33;19.62;;;;;;;0.68;74.45;101924.76;1595340;89;21111;-77
2022/01/16 03:02:17;;;;;;;40.35;16.52;;;;;;;0.69;74.42;101918.77;1567427;90;21416;-75
2022/01/16 03:04:43;;;;;;;29.60;15.95;;;;;;;0.68;74.37;101917.87;1565214;90;21164;-75
2022/01/16 03:07:10;;;;;;;33.10;16.80;;;;;;;0.69;74.39;101914.48;1567505;90;21130;-75
2022/01/16 03:10:06;;;;;;;41.92;17.55;;;;;;;0.69;74.32;101914.89;1567714;89;21767;-75
2022/01/16 03:12:26;;;;;;;39.08;17.42;;;;;;;0.68;74.40;101897.15;1541466;92;21029;-75
2022/01/16 03:14:53;;;;;;;33.13;15.95;;;;;;;0.70;74.38;101891.70;1568074;90;21154;-75
2022/01/16 03:21:52;;;;;;;40.40;16.48;;;;;;;0.68;74.40;101883.30;1567253;90;21614;-77
2022/01/16 03:22:37;;;;;;;35.03;15.98;;;;;;;0.63;74.52;101884.19;1578793;90;21277;-75
2022/01/16 03:25:05;;;;;;;39.95;17.87;;;;;;;0.60;74.60;101877.84;1567550;90;21150;-75
2022/01/16 03:27:31;;;;;;;41.23;17.20;;;;;;;0.55;74.70;101873.59;1567499;89;21664;-75
2022/01/16 03:30:00;;;;;;;35.90;17.40;;;;;;;0.48;74.79;101872.16;1552928;92;21126;-75
2022/01/16 03:32:27;;;;;;;41.02;16.32;;;;;;;0.45;74.93;101879.70;1567464;89;21687;-74
2022/01/16 03:34:54;;;;;;;40.40;16.80;;;;;;;0.45;75.03;101874.88;1553789;92;21865;-75
2022/01/16 03:37:20;;;;;;;30.90;15.48;;;;;;;0.46;75.10;101863.36;1576698;89;21113;-76
2022/01/16 03:39:47;;;;;;;40.78;16.45;;;;;;;0.47;75.11;101851.30;1575608;89;21101;-76
2022/01/16 03:42:14;;;;;;;35.23;16.77;;;;;;;0.49;75.14;101853.27;1597958;89;21183;-76
2022/01/16 03:44:41;;;;;;;41.53;15.75;;;;;;;0.52;75.16;101855.19;1568063;90;21731;-76
2022/01/16 03:47:08;;;;;;;42.05;16.67;;;;;;;0.53;75.15;101843.66;1567376;90;22408;-76
2022/01/16 03:49:34;;;;;;;36.73;16.17;;;;;;;0.55;75.19;101829.15;1570787;91;21177;-76
2022/01/16 03:52:01;;;;;;;37.83;17.40;;;;;;;0.58;75.21;101833.66;1575685;89;21707;-75
2022/01/16 03:54:30;;;;;;;38.35;16.32;;;;;;;0.60;75.18;101833.80;1565251;91;21173;-75
2022/01/16 03:56:57;;;;;;;38.17;16.80;;;;;;;0.62;75.17;101837.42;1539985;92;21150;-76
2022/01/16 03:59:24;;;;;;;38.85;17.62;;;;;;;0.64;75.18;101824.20;1564932;91;22718;-76
2022/01/16 04:01:51;;;;;;;39.33;16.90;;;;;;;0.64;75.15;101817.36;1539669;93;21562;-76
2022/01/16 04:04:17;;;;;;;33.83;16.95;;;;;;;0.68;75.12;101821.10;1564785;91;21247;-75
2022/01/16 04:06:45;;;;;;;37.17;16.73;;;;;;;0.68;75.07;101816.81;1539265;93;38533;-75
2022/01/16 04:09:11;;;;;;;39.75;17.17;;;;;;;0.70;75.16;101806.58;1564747;91;21150;-76
2022/01/16 04:11:44;;;;;;;34.95;16.55;;;;;;;0.72;75.12;101802.43;1539789;92;23155;-75
2022/01/16 04:14:10;;;;;;;36.28;14.95;;;;;;;0.74;75.10;101801.77;1564336;89;21117;-75
2022/01/16 04:16:35;;;;;;;30.60;16.00;;;;;;;0.75;75.07;101803.95;1564875;91;21233;-75
2022/01/16 04:19:02;;;;;;;39.35;17.42;;;;;;;0.77;75.11;101795.94;1539725;93;21067;-76
2022/01/16 04:21:28;;;;;;;33.05;17.00;;;;;;;0.77;75.06;101784.28;1564800;91;21118;-76
2022/01/16 04:23:55;;;;;;;32.23;15.85;;;;;;;0.77;75.10;101787.77;1539615;93;21820;-76
2022/01/16 04:26:25;;;;;;;29.12;15.28;;;;;;;0.80;75.11;101788.39;1564936;91;21163;-76
2022/01/16 04:28:50;;;;;;;24.95;15.48;;;;;;;0.81;75.12;101786.70;1564817;90;21101;-75
2022/01/16 04:31:17;;;;;;;29.25;14.28;;;;;;;0.84;75.11;101784.36;1564717;91;21050;-76
2022/01/16 04:33:44;;;;;;;29.42;15.05;;;;;;;0.83;75.07;101773.10;1539633;93;21210;-76
2022/01/16 04:36:11;;;;;;;34.10;14.87;;;;;;;0.84;75.11;101776.19;1564922;91;23022;-76
2022/01/16 04:38:44;;;;;;;32.15;15.03;;;;;;;0.83;75.07;101774.80;1539583;93;21112;-76
2022/01/16 04:43:52;;;;;;;38.17;15.18;;;;;;;0.82;75.18;101778.16;1564722;91;21070;-75
2022/01/16 04:46:22;;;;;;;37.35;17.27;;;;;;;0.82;75.26;101776.86;1565459;91;21110;-76
2022/01/16 04:48:49;;;;;;;36.30;16.52;;;;;;;0.85;75.33;101770.64;1539914;93;22356;-75
2022/01/16 04:51:16;;;;;;;41.80;17.65;;;;;;;0.82;75.27;101769.98;1565161;89;21297;-75
2022/01/16 04:53:42;;;;;;;37.25;16.70;;;;;;;0.83;75.36;101769.61;1549475;90;21141;-76
2022/01/16 04:56:10;;;;;;;37.65;17.98;;;;;;;0.84;75.35;101761.04;1600415;89;21782;-75
2022/01/16 04:58:37;;;;;;;41.73;18.95;;;;;;;0.81;75.34;101763.00;1600724;89;21182;-75
2022/01/16 05:01:03;;;;;;;37.15;17.48;;;;;;;0.74;75.38;101738.67;1566860;89;21771;-75
2022/01/16 05:03:30;;;;;;;35.63;17.48;;;;;;;0.85;75.52;101739.13;1548998;91;21207;-76
2022/01/16 05:05:57;;;;;;;38.70;16.27;;;;;;;0.89;75.50;101731.21;1548811;91;21134;-75
2022/01/16 05:08:24;;;;;;;34.33;15.28;;;;;;;0.89;75.47;101722.14;1551355;91;21193;-76
2022/01/16 05:10:55;;;;;;;32.90;15.32;;;;;;;0.90;75.45;101729.12;1570918;90;21113;-75
2022/01/16 05:16:33;;;;;;;31.93;16.02;;;;;;;0.90;75.41;101723.56;1567854;91;21854;-75
2022/01/16 05:18:41;;;;;;;32.65;14.18;;;;;;;0.88;75.36;101721.61;1567803;90;21093;-75
2022/01/16 05:21:08;;;;;;;28.17;13.18;;;;;;;0.92;75.47;101717.18;1568112;90;21243;-76
2022/01/16 05:23:34;;;;;;;33.45;14.70;;;;;;;0.89;75.33;101717.85;1568063;90;21655;-76
2022/01/16 05:26:01;;;;;;;31.20;12.70;;;;;;;0.88;75.31;101716.06;1568114;90;21767;-76
2022/01/16 05:28:28;;;;;;;25.52;12.73;;;;;;;0.89;75.37;101714.36;1567896;90;21574;-76
2022/01/16 05:30:55;;;;;;;30.12;14.33;;;;;;;0.88;75.40;101709.95;1568112;91;21086;-76
2022/01/16 05:33:21;;;;;;;25.77;13.48;;;;;;;0.89;75.42;101706.59;1567899;90;21051;-75
2022/01/16 05:35:48;;;;;;;26.35;12.98;;;;;;;0.87;75.42;101699.98;1568039;90;21093;-75
2022/01/16 05:38:15;;;;;;;30.62;12.82;;;;;;;0.87;75.45;101701.28;1567655;90;22599;-76
2022/01/16 05:40:43;;;;;;;24.63;12.50;;;;;;;0.89;75.48;101704.89;1567822;90;21051;-76
2022/01/16 05:43:10;;;;;;;23.73;12.05;;;;;;;0.91;75.56;101701.13;1567755;91;21090;-76
2022/01/16 05:45:38;;;;;;;28.02;12.95;;;;;;;0.90;75.50;101682.09;1567878;91;21154;-77
2022/01/16 05:48:06;;;;;;;32.48;14.10;;;;;;;0.91;75.58;101670.03;1568068;90;21105;-77
2022/01/16 05:50:32;;;;;;;35.00;13.03;;;;;;;0.89;75.60;101654.34;1567616;91;21789;-77
2022/01/16 05:53:00;;;;;;;27.22;13.95;;;;;;;0.93;75.64;101659.38;1590009;89;21240;-77
2022/01/16 05:55:31;;;;;;;22.48;13.50;;;;;;;0.87;75.55;101663.69;1567252;90;21038;-77
2022/01/16 05:57:55;;;;;;;30.82;15.03;;;;;;;0.87;75.61;101664.09;1534226;91;21641;-77
2022/01/16 06:00:22;;;;;;;29.37;13.35;;;;;;;0.83;75.63;101664.24;1567264;90;21109;-77
2022/01/16 06:02:49;;;;;;;29.70;13.75;;;;;;;0.78;75.65;101659.08;1579234;90;21740;-77
2022/01/16 06:05:16;;;;;;;31.87;14.83;;;;;;;0.77;75.84;101659.48;1568371;88;21105;-77
2022/01/16 06:07:53;;;;;;;33.00;15.13;;;;;;;0.78;75.86;101651.30;1542681;92;21658;-76
2022/01/16 06:10:12;;;;;;;33.83;14.78;;;;;;;0.78;75.97;101643.53;1567409;89;21407;-77
2022/01/16 06:12:39;;;;;;;31.75;13.48;;;;;;;0.81;75.96;101640.27;1567957;89;21142;-77
2022/01/16 06:15:07;;;;;;;32.45;14.00;;;;;;;0.80;76.00;101638.08;1542359;92;21935;-77
2022/01/16 06:17:33;;;;;;;29.57;14.25;;;;;;;0.81;76.01;101637.67;1567039;91;21591;-77
2022/01/16 06:20:00;;;;;;;28.70;13.78;;;;;;;0.80;75.94;101641.06;1542999;92;21151;-77
2022/01/16 06:22:27;;;;;;;25.17;13.22;;;;;;;0.75;75.97;101641.62;1567034;90;21263;-77
2022/01/16 06:24:53;;;;;;;28.17;13.72;;;;;;;0.73;76.03;101639.66;1594884;88;21151;-76
2022/01/16 06:27:20;;;;;;;31.23;14.95;;;;;;;0.70;76.07;101633.86;1593619;89;21767;-75
2022/01/16 06:29:47;;;;;;;32.00;14.15;;;;;;;0.67;76.08;101640.09;1594791;89;21576;-75
2022/01/16 06:32:13;;;;;;;37.55;15.63;;;;;;;0.68;76.28;101645.80;1567278;90;21212;-75
2022/01/16 06:34:40;;;;;;;35.08;15.40;;;;;;;0.67;76.24;101642.67;1595229;89;21213;-75
2022/01/16 06:37:07;;;;;;;33.13;15.63;;;;;;;0.66;76.27;101639.99;1594846;89;21144;-75
2022/01/16 06:39:34;;;;;;;34.35;16.50;;;;;;;0.64;76.36;101632.09;1592801;89;21992;-76
2022/01/16 06:42:00;;;;;;;32.20;16.00;;;;;;;0.64;76.43;101624.32;1593656;89;21125;-76
2022/01/16 06:44:27;;;;;;;36.40;15.75;;;;;;;0.64;76.43;101632.46;1594282;89;21656;-76
2022/01/16 06:46:54;;;;;;;34.40;14.33;;;;;;;0.62;76.44;101630.14;1567195;90;21094;-76
2022/01/16 06:49:20;;;;;;;36.95;15.43;;;;;;;0.58;76.47;101628.62;1553646;92;21102;-76
2022/01/16 06:51:52;;;;;;;36.95;17.02;;;;;;;0.57;76.55;101625.51;1569472;88;22577;-73
2022/01/16 06:54:21;;;;;;;32.20;15.68;;;;;;;0.57;76.65;101618.14;1581956;89;21181;-73
2022/01/16 06:56:49;;;;;;;35.80;16.55;;;;;;;0.53;76.77;101601.84;1629375;87;21152;-79
2022/01/16 06:59:16;;;;;;;34.38;15.68;;;;;;;0.64;76.80;101619.50;1630442;87;21098;-80
2022/01/16 07:01:43;;;;;;;35.13;14.93;;;;;;;0.66;76.84;101612.38;1629481;87;21174;-80
2022/01/16 07:04:09;;;;;;;37.05;16.27;;;;;;;0.68;76.74;101604.74;1626294;86;22871;-80
2022/01/16 07:06:36;;;;;;;31.73;14.23;;;;;;;0.68;76.81;101612.11;1630317;87;21663;-80
2022/01/16 07:09:03;;;;;;;34.00;15.45;;;;;;;0.68;76.78;101617.30;1630228;87;21345;-81
2022/01/16 07:11:29;;;;;;;32.08;15.20;;;;;;;0.68;76.77;101616.40;1629543;87;21679;-73
2022/01/16 07:13:58;;;;;;;41.53;15.05;;;;;;;0.70;76.86;101614.83;1625937;87;21667;-74
2022/01/16 07:16:24;;;;;;;39.55;15.83;;;;;;;0.74;76.89;101620.36;1630179;87;23224;-74
2022/01/16 07:18:53;;;;;;;36.70;16.32;;;;;;;0.77;76.91;101625.80;1629977;87;21098;-74
2022/01/16 07:21:20;;;;;;;40.90;17.48;;;;;;;0.84;76.88;101615.89;1630030;87;21199;-73
2022/01/16 07:23:46;;;;;;;37.70;16.40;;;;;;;0.86;76.86;101613.02;1630150;87;21181;-73
2022/01/16 07:26:17;;;;;;;41.58;16.70;;;;;;;0.90;76.90;101615.06;1630020;87;21094;-73
2022/01/16 07:28:46;;;;;;;;;;;;;;;0.88;76.77;101611.45;1612204;87;21859;-72
2022/01/16 07:31:13;;;;;;;41.30;17.07;;;;;;;0.87;76.83;101615.74;1629731;87;20179;-72
2022/01/16 07:33:39;;;;;;;44.85;17.23;;;;;;;0.83;76.79;101599.85;1630101;87;21118;-74
2022/01/16 07:36:06;;;;;;;38.73;16.75;;;;;;;0.82;76.85;101605.41;1630351;87;21180;-73
2022/01/16 07:38:35;;;;;;;43.45;17.70;;;;;;;0.83;76.91;101603.34;1630097;87;21161;-73
2022/01/16 07:41:01;;;;;;;37.98;17.00;;;;;;;0.83;76.98;101599.85;1629530;87;22513;-73
2022/01/16 07:43:28;;;;;;;41.65;16.70;;;;;;;0.84;76.97;101592.17;1629786;87;21125;-73
2022/01/16 07:45:54;;;;;;;41.58;18.20;;;;;;;0.86;77.06;101595.78;1630044;87;21169;-73
2022/01/16 07:48:21;;;;;;;37.05;16.48;;;;;;;0.90;77.08;101587.48;1629638;87;21181;-73
2022/01/16 07:50:49;;;;;;;34.85;16.65;;;;;;;0.94;77.13;101589.92;1629780;87;21746;-75
2022/01/16 07:53:16;;;;;;;32.33;16.07;;;;;;;0.97;77.06;101593.63;1626117;87;22617;-73
2022/01/16 07:55:43;;;;;;;45.25;17.62;;;;;;;1.00;77.09;101596.86;1624205;87;21125;-73
2022/01/16 07:58:10;;;;;;;45.08;17.62;;;;;;;1.03;77.13;101595.78;1624764;88;21380;-73
2022/01/16 08:00:36;;;;;;;39.23;16.42;;;;;;;1.06;77.04;101602.91;1623475;88;21108;-73
2022/01/16 08:03:03;;;;;;;36.53;18.07;;;;;;;1.03;76.99;101607.45;1615362;88;21621;-73
2022/01/16 08:05:38;;;;;;;35.60;16.97;;;;;;;1.08;77.03;101603.93;1623887;88;21138;-73
2022/01/16 08:08:06;;;;;;;37.50;15.15;;;;;;;1.12;77.09;101603.37;1624613;88;21114;-73
2022/01/16 08:10:34;;;;;;;37.48;16.57;;;;;;;1.15;77.06;101606.21;1620968;88;21659;-73
2022/01/16 08:13:04;;;;;;;37.58;16.32;;;;;;;1.21;77.11;101605.78;1620466;88;21252;-73
2022/01/16 08:15:31;;;;;;;32.90;15.00;;;;;;;1.22;77.02;101597.19;1620587;88;21631;-74
2022/01/16 08:17:58;;;;;;;31.10;16.25;;;;;;;1.26;77.04;101585.89;1621008;88;21770;-73
2022/01/16 08:20:48;;;;;;;36.00;16.02;;;;;;;1.31;77.04;101574.55;1620687;88;21432;-73
2022/01/16 08:23:14;;;;;;;34.60;15.28;;;;;;;1.37;77.06;101576.33;1619065;88;21697;-73
2022/01/16 08:25:41;;;;;;;40.50;15.98;;;;;;;1.48;77.10;101575.81;1620210;88;21094;-73
2022/01/16 08:28:08;;;;;;;43.35;15.70;;;;;;;1.57;77.07;101568.72;1620976;88;21091;-73
2022/01/16 08:30:35;;;;;;;32.65;16.10;;;;;;;1.64;76.94;101566.20;1620390;88;22746;-74
2022/01/16 08:33:01;;;;;;;35.43;16.60;;;;;;;1.67;76.83;101572.89;1620725;88;21071;-74
2022/01/16 08:35:28;;;;;;;38.65;16.48;;;;;;;1.69;76.72;101554.44;1610954;88;21682;-75
2022/01/16 08:37:55;;;;;;;35.30;16.00;;;;;;;1.71;76.62;101558.97;1599356;89;21210;-80
2022/01/16 08:40:21;;;;;;;29.52;15.08;;;;;;;1.73;76.60;101547.41;1598548;89;21098;-81
2022/01/16 08:42:48;;;;;;;32.45;15.72;;;;;;;1.75;76.54;101558.40;1598945;89;22600;-75
2022/01/16 08:45:15;;;;;;;33.70;15.43;;;;;;;1.78;76.47;101554.22;1598738;89;21103;-79
2022/01/16 08:47:43;;;;;;;34.65;15.53;;;;;;;1.82;76.56;101551.98;1599524;89;21106;-75
2022/01/16 08:50:10;;;;;;;37.03;17.30;;;;;;;1.88;76.50;101552.41;1599615;89;21138;-75
2022/01/16 08:52:38;;;;;;;44.80;18.00;;;;;;;1.94;76.45;101545.47;1605360;86;21646;-75
2022/01/16 08:55:08;;;;;;;44.60;18.70;;;;;;;2.03;76.49;101538.34;1626463;88;22717;-75
2022/01/16 08:57:38;;;;;;;39.30;19.25;;;;;;;2.07;76.26;101530.38;1626342;87;21114;-75
2022/01/16 09:00:10;;;;;;;38.55;17.23;;;;;;;2.06;76.13;101520.36;1626467;86;21397;-74
2022/01/16 09:02:36;;;;;;;37.60;17.73;;;;;;;1.90;76.13;101477.25;1627817;88;21239;-75
2022/01/16 09:05:04;;;;;;;41.13;19.02;;;;;;;2.10;76.11;101505.53;1627858;88;21113;-75
2022/01/16 09:07:31;;;;;;;37.88;18.65;;;;;;;2.11;76.11;101499.94;1628088;88;21739;-75
2022/01/16 09:10:00;;;;;;;40.80;17.42;;;;;;;2.16;76.11;101487.26;1624563;88;21043;-75
2022/01/16 09:12:27;;;;;;;38.63;18.25;;;;;;;2.19;76.06;101484.48;1621630;87;21150;-76
2022/01/16 09:14:54;;;;;;;37.83;17.77;;;;;;;2.22;75.95;101478.63;1621109;88;21110;-75
2022/01/16 09:17:21;;;;;;;33.73;16.70;;;;;;;2.26;75.94;101476.73;1620969;88;21098;-76
2022/01/16 09:19:47;;;;;;;34.83;17.02;;;;;;;2.27;75.82;101470.36;1621284;88;21807;-76
2022/01/16 09:22:14;;;;;;;34.63;16.42;;;;;;;2.32;75.89;101471.96;1621090;88;21609;-76
2022/01/16 09:24:40;;;;;;;33.23;16.75;;;;;;;2.36;75.79;101471.37;1621000;88;21099;-75
2022/01/16 09:27:07;;;;;;;35.20;16.90;;;;;;;2.39;75.72;101465.51;1627811;86;21267;-76
2022/01/16 09:29:34;;;;;;;35.55;18.60;;;;;;;2.45;75.76;101454.23;1628074;86;21097;-76
2022/01/16 09:32:01;;;;;;;28.60;15.55;;;;;;;2.50;75.71;101440.76;1628158;88;22766;-76
2022/01/16 09:34:28;;;;;;;39.98;15.75;;;;;;;2.56;75.68;101443.28;1599082;89;21040;-75
2022/01/16 09:36:56;;;;;;;33.23;15.85;;;;;;;2.61;75.59;101436.67;1598441;89;21098;-77
2022/01/16 09:39:25;;;;;;;37.38;17.82;;;;;;;2.65;75.59;101429.20;1597932;87;21051;-75
2022/01/16 09:41:53;;;;;;;38.98;15.38;;;;;;;2.73;75.57;101421.52;1609122;87;21133;-76
2022/01/16 09:44:20;;;;;;;37.93;17.30;;;;;;;2.78;75.35;101410.14;1641512;86;21697;-76
2022/01/16 09:46:47;;;;;;;27.62;14.20;;;;;;;2.80;75.25;101405.05;1631655;86;22315;-76
2022/01/16 09:49:30;;;;;;;36.83;14.30;;;;;;;2.80;75.10;101405.94;1629676;86;21090;-76
2022/01/16 09:51:52;;;;;;;29.30;12.53;;;;;;;2.77;74.96;101397.92;1631303;86;21588;-75
2022/01/16 09:54:21;;;;;;;34.92;13.15;;;;;;;2.76;74.93;101391.31;1624540;86;21098;-75
2022/01/16 09:56:48;;;;;;;29.05;13.43;;;;;;;2.80;75.01;101389.45;1616361;88;22631;-76
2022/01/16 09:59:14;;;;;;;28.12;13.20;;;;;;;2.84;74.92;101381.94;1616610;88;21115;-75
2022/01/16 10:01:41;;;;;;;33.80;13.75;;;;;;;2.84;74.66;101377.15;1617187;87;21710;-76
2022/01/16 10:04:32;;;;;;;29.52;12.53;;;;;;;2.78;74.58;101371.52;1617262;88;21169;-77
2022/01/16 10:07:01;;;;;;;28.42;12.53;;;;;;;2.73;74.53;101377.73;1601131;88;21119;-75
2022/01/16 10:09:28;;;;;;;43.58;14.40;;;;;;;2.73;74.64;101374.72;1600795;89;21800;-75
2022/01/16 10:11:58;;;;;;;31.77;12.33;;;;;;;2.67;74.45;101367.83;1595810;88;21115;-76
2022/01/16 10:14:34;;;;;;;34.18;12.28;;;;;;;2.64;74.62;101366.31;1609663;88;21675;-76
2022/01/16 10:17:10;;;;;;;28.92;11.80;;;;;;;2.67;74.67;101367.83;1601259;88;21098;-76
2022/01/16 10:19:37;;;;;;;29.30;11.57;;;;;;;2.66;74.39;101366.42;1606589;88;21103;-76
2022/01/16 10:22:07;;;;;;;34.03;11.97;;;;;;;2.66;74.50;101356.02;1617589;88;21888;-74
2022/01/16 10:24:34;;;;;;;32.03;11.95;;;;;;;2.67;74.46;101357.43;1617180;88;21119;-74
2022/01/16 10:27:14;;;;;;;40.43;12.07;;;;;;;2.66;74.37;101363.41;1617663;88;21091;-75
2022/01/16 10:29:51;;;;;;;31.25;11.83;;;;;;;2.66;74.33;101372.50;1617494;88;21110;-75
2022/01/16 10:32:26;;;;;;;33.00;11.18;;;;;;;2.66;74.29;101371.20;1606280;88;21123;-75
2022/01/16 10:35:14;;;;;;;30.17;11.25;;;;;;;2.66;74.23;101362.52;1592010;89;21795;-75
2022/01/16 10:37:47;;;;;;;32.48;12.13;;;;;;;2.66;74.22;101349.11;1590868;90;21111;-75
2022/01/16 10:40:20;;;;;;;41.75;13.38;;;;;;;2.67;74.20;101348.73;1607941;88;21623;-75
2022/01/16 10:42:52;;;;;;;33.05;13.08;;;;;;;2.63;74.07;101346.33;1616087;88;21694;-75
2022/01/16 10:45:27;;;;;;;35.10;12.85;;;;;;;2.61;74.06;101347.01;1604611;88;21138;-75
2022/01/16 10:47:56;;;;;;;35.17;15.23;;;;;;;2.62;74.09;101339.73;1575339;89;21612;-75
2022/01/16 10:50:36;;;;;;;33.58;13.20;;;;;;;2.63;74.05;101331.14;1566559;90;21158;-76
2022/01/16 10:53:06;;;;;;;40.10;13.30;;;;;;;2.61;73.97;101319.34;1593626;88;21122;-75
2022/01/16 10:55:44;;;;;;;35.92;12.65;;;;;;;2.58;73.94;101322.14;1625896;88;22040;-75
2022/01/16 10:58:24;;;;;;;40.33;13.28;;;;;;;2.63;74.15;101311.24;1610583;88;21043;-75
2022/01/16 11:01:06;;;;;;;34.23;11.85;;;;;;;2.72;74.10;101301.83;1619278;88;21960;-75
2022/01/16 11:03:48;;;;;;;36.23;13.13;;;;;;;2.75;73.94;101294.24;1618406;88;21082;-75
2022/01/16 11:06:16;;;;;;;31.12;11.33;;;;;;;2.82;73.93;101294.25;1618904;88;21114;-75
2022/01/16 11:08:56;;;;;;;28.90;12.63;;;;;;;2.81;73.76;101291.14;1625377;86;21106;-75
2022/01/16 11:11:26;;;;;;;31.60;12.90;;;;;;;2.85;73.76;101288.86;1642230;85;21469;-75
2022/01/16 11:13:55;;;;;;;30.65;13.32;;;;;;;2.86;73.65;101285.44;1597404;88;21780;-75
2022/01/16 11:16:23;;;;;;;39.27;14.38;;;;;;;2.86;73.55;101278.05;1636563;86;21067;-75
2022/01/16 11:18:52;;;;;;;33.85;13.55;;;;;;;2.88;73.50;101273.84;1648509;86;21131;-76
2022/01/16 11:21:30;;;;;;;29.10;12.37;;;;;;;2.87;73.33;101272.95;1623141;86;22229;-75
2022/01/16 11:24:00;;;;;;;33.85;13.20;;;;;;;2.85;73.32;101268.05;1647264;86;21063;-74
2022/01/16 11:26:18;;;;;;;40.20;14.25;;;;;;;2.88;73.41;101264.33;1647142;86;21858;-75
2022/01/16 11:28:44;;;;;;;32.98;12.95;;;;;;;2.89;73.30;101264.84;1648755;86;21117;-74
2022/01/16 11:31:13;;;;;;;33.38;13.30;;;;;;;2.91;73.29;101258.04;1620009;88;21098;-75
2022/01/16 11:33:40;;;;;;;35.85;14.15;;;;;;;2.96;73.23;101262.62;1597193;89;21468;-75
2022/01/16 11:36:14;;;;;;;48.78;17.57;;;;;;;3.00;73.15;101255.52;1607989;88;21608;-75
2022/01/16 11:38:49;;;;;;;31.15;13.18;;;;;;;3.02;73.17;101256.51;1607728;88;23076;-75
2022/01/16 11:41:31;;;;;;;34.92;12.10;;;;;;;3.05;73.02;101253.70;1625882;88;21576;-75
2022/01/16 11:43:54;;;;;;;38.08;13.40;;;;;;;3.07;72.86;101259.01;1626915;86;21109;-74
2022/01/16 11:46:25;;;;;;;34.27;11.60;;;;;;;3.05;72.67;101251.52;1647850;86;21094;-74
2022/01/16 11:49:04;;;;;;;45.17;17.37;;;;;;;3.03;72.65;101250.52;1626805;88;21201;-75
2022/01/16 11:51:39;;;;;;;34.10;13.50;;;;;;;3.07;72.68;101247.30;1626704;87;21835;-75
2022/01/16 11:54:35;;;;;;;49.38;25.60;;;;;;;3.08;72.52;101240.91;1598020;89;21090;-74
2022/01/16 11:57:27;;;;;;;35.38;13.50;;;;;;;3.10;72.58;101238.41;1612659;88;21091;-74
2022/01/16 12:00:14;;;;;;;31.35;12.80;;;;;;;3.13;72.48;101225.98;1612735;88;21118;-75